Myramount, Australia

9:03 PM AEDT on February 26, 2017 (GMT +1100)
Gerringong | | Change Station

Elev 98 ft 34.75 °S, 150.82 °E | Updated 25 seconds ago

Partly Cloudy
Partly Cloudy
66.1 °F
Feels Like 66.1 °F
N
7.0
Wind Variable Wind from SSW
Gusts 7.0 mph

Today
High -- | Low -- °F
--% Chance of Precip.
Yesterday
High -- | Low -- °F
Precip. -- in
Pressure 30.21 in
Visibility 6.2 miles
Clouds
Dew Point 61 °F
Humidity 83%
Rainfall 0.38 in
Snow Depth Not available.
6:40 AM 7:37 PM
Waning Crescent, 0% visible
METAR YSNW 260800Z AUTO 16011KT 9999 // NCD 20/13 Q1023
Pressure 30.21 in
Visibility 6.2 miles
Clouds
Dew Point 61 °F
Humidity 83%
Rainfall 0.38 in
Snow Depth Not available.
6:40 AM 7:37 PM
Waning Crescent, 0% visible
METAR YSNW 260800Z AUTO 16011KT 9999 // NCD 20/13 Q1023

Get Your Daily Forecast Email!

Thanks for signing up!

Be on the lookout for a verification email in your inbox.

You'll start receiving the daily forecast at 8 AM.

×

10-Day Weather Forecast

×

Almanac

Astronomy

Feb. 26, 2017 Rise Set
Actual Time
Civil Twilight
Nautical Twilight
Astronomical Twilight
Moon
Length of Visible Light
Length of Day
Tomorrow will be .
, % of the Moon is Illuminated

Today's Extremes

Country Highs Country Lows

Community

WunderPhotos

Upload Photos

1,962,540 photos uploaded!

WunderBlog® & News

Nearby

Air Quality

  Air Quality AQ Index Pollutant
Not available.

Snow Depth

Station Depth Elevation

Earthquake Activity

City Distance Mag. Time & Date
Minimum magnitude displayed is 2.5.

Coastal Water Temperatures

Place Temperature

Stations

Nearby Weather Stations

Station Location Temp. Windchill Dew Point Humidity Wind Precip. Elev Updated Type